sensor_id;sensor_type;location;lat;lon;timestamp;P1;durP1;ratioP1;P2;durP2;ratioP2
68987;SDS011;56038;46.080;11.116;2022-12-29T00:01:16;13.88;;;9.30;;
68987;SDS011;56038;46.080;11.116;2022-12-29T00:06:17;14.55;;;9.80;;
68987;SDS011;56038;46.080;11.116;2022-12-29T00:11:20;12.48;;;9.27;;
68987;SDS011;56038;46.080;11.116;2022-12-29T00:16:24;19.77;;;9.30;;
68987;SDS011;56038;46.080;11.116;2022-12-29T00:21:27;17.95;;;9.23;;
68987;SDS011;56038;46.080;11.116;2022-12-29T00:26:46;16.15;;;9.55;;
68987;SDS011;56038;46.080;11.116;2022-12-29T00:32:08;13.70;;;8.70;;
68987;SDS011;56038;46.080;11.116;2022-12-29T00:37:28;17.35;;;10.20;;
68987;SDS011;56038;46.080;11.116;2022-12-29T00:42:43;15.90;;;8.88;;
68987;SDS011;56038;46.080;11.116;2022-12-29T00:48:04;15.93;;;9.57;;
68987;SDS011;56038;46.080;11.116;2022-12-29T00:53:06;17.40;;;9.80;;
68987;SDS011;56038;46.080;11.116;2022-12-29T00:58:08;18.95;;;9.38;;
68987;SDS011;56038;46.080;11.116;2022-12-29T01:03:11;16.85;;;9.15;;
68987;SDS011;56038;46.080;11.116;2022-12-29T01:08:13;13.98;;;9.48;;
68987;SDS011;56038;46.080;11.116;2022-12-29T01:13:14;15.52;;;8.93;;
68987;SDS011;56038;46.080;11.116;2022-12-29T01:18:17;16.45;;;9.38;;
68987;SDS011;56038;46.080;11.116;2022-12-29T01:23:19;16.50;;;9.05;;
68987;SDS011;56038;46.080;11.116;2022-12-29T01:28:21;12.73;;;9.55;;
68987;SDS011;56038;46.080;11.116;2022-12-29T01:33:25;12.70;;;8.73;;
68987;SDS011;56038;46.080;11.116;2022-12-29T01:38:26;15.95;;;8.77;;
68987;SDS011;56038;46.080;11.116;2022-12-29T01:43:38;11.38;;;8.52;;
68987;SDS011;56038;46.080;11.116;2022-12-29T01:48:42;15.00;;;8.52;;
68987;SDS011;56038;46.080;11.116;2022-12-29T01:53:44;16.35;;;8.52;;
68987;SDS011;56038;46.080;11.116;2022-12-29T01:58:48;12.15;;;8.18;;
68987;SDS011;56038;46.080;11.116;2022-12-29T02:03:57;10.90;;;8.73;;
68987;SDS011;56038;46.080;11.116;2022-12-29T02:08:59;14.32;;;8.80;;
68987;SDS011;56038;46.080;11.116;2022-12-29T02:14:01;15.40;;;7.78;;
68987;SDS011;56038;46.080;11.116;2022-12-29T02:19:14;12.57;;;8.60;;
68987;SDS011;56038;46.080;11.116;2022-12-29T02:24:58;13.68;;;8.23;;
68987;SDS011;56038;46.080;11.116;2022-12-29T02:35:44;12.43;;;8.80;;
68987;SDS011;56038;46.080;11.116;2022-12-29T02:40:53;14.48;;;8.95;;
68987;SDS011;56038;46.080;11.116;2022-12-29T02:46:07;15.35;;;9.25;;
68987;SDS011;56038;46.080;11.116;2022-12-29T02:51:15;15.85;;;9.23;;
68987;SDS011;56038;46.080;11.116;2022-12-29T02:56:22;13.45;;;8.27;;
68987;SDS011;56038;46.080;11.116;2022-12-29T03:01:28;13.20;;;8.63;;
68987;SDS011;56038;46.080;11.116;2022-12-29T03:06:37;22.05;;;8.85;;
68987;SDS011;56038;46.080;11.116;2022-12-29T03:11:53;16.55;;;8.52;;
68987;SDS011;56038;46.080;11.116;2022-12-29T03:17:14;13.15;;;9.07;;
68987;SDS011;56038;46.080;11.116;2022-12-29T03:22:26;13.98;;;8.48;;
68987;SDS011;56038;46.080;11.116;2022-12-29T03:27:32;14.80;;;8.88;;
68987;SDS011;56038;46.080;11.116;2022-12-29T03:32:40;18.85;;;10.18;;
68987;SDS011;56038;46.080;11.116;2022-12-29T03:37:45;11.35;;;8.73;;
68987;SDS011;56038;46.080;11.116;2022-12-29T03:42:53;13.35;;;8.80;;
68987;SDS011;56038;46.080;11.116;2022-12-29T03:47:58;12.95;;;8.70;;
68987;SDS011;56038;46.080;11.116;2022-12-29T03:53:00;12.07;;;8.70;;
68987;SDS011;56038;46.080;11.116;2022-12-29T03:58:02;11.68;;;8.85;;
68987;SDS011;56038;46.080;11.116;2022-12-29T04:03:05;14.05;;;8.98;;
68987;SDS011;56038;46.080;11.116;2022-12-29T04:08:06;12.30;;;8.95;;
68987;SDS011;56038;46.080;11.116;2022-12-29T04:13:08;12.18;;;8.27;;
68987;SDS011;56038;46.080;11.116;2022-12-29T04:18:11;12.55;;;8.10;;
68987;SDS011;56038;46.080;11.116;2022-12-29T04:23:13;12.90;;;8.10;;
68987;SDS011;56038;46.080;11.116;2022-12-29T04:28:15;13.63;;;8.43;;
68987;SDS011;56038;46.080;11.116;2022-12-29T04:33:19;14.93;;;9.32;;
68987;SDS011;56038;46.080;11.116;2022-12-29T04:38:21;11.52;;;8.20;;
68987;SDS011;56038;46.080;11.116;2022-12-29T04:43:24;13.90;;;8.15;;
68987;SDS011;56038;46.080;11.116;2022-12-29T04:48:27;12.23;;;8.05;;
68987;SDS011;56038;46.080;11.116;2022-12-29T04:53:29;13.38;;;8.07;;
68987;SDS011;56038;46.080;11.116;2022-12-29T04:58:30;15.73;;;8.57;;
68987;SDS011;56038;46.080;11.116;2022-12-29T05:03:33;12.38;;;8.32;;
68987;SDS011;56038;46.080;11.116;2022-12-29T05:08:35;13.85;;;8.77;;
68987;SDS011;56038;46.080;11.116;2022-12-29T05:13:37;16.58;;;8.27;;
68987;SDS011;56038;46.080;11.116;2022-12-29T05:18:40;15.20;;;8.15;;
68987;SDS011;56038;46.080;11.116;2022-12-29T05:23:42;11.18;;;7.82;;
68987;SDS011;56038;46.080;11.116;2022-12-29T05:28:44;12.20;;;8.05;;
68987;SDS011;56038;46.080;11.116;2022-12-29T05:33:47;11.75;;;8.00;;
68987;SDS011;56038;46.080;11.116;2022-12-29T05:38:49;12.50;;;8.48;;
68987;SDS011;56038;46.080;11.116;2022-12-29T05:43:50;13.25;;;7.93;;
68987;SDS011;56038;46.080;11.116;2022-12-29T05:48:53;13.13;;;8.57;;
68987;SDS011;56038;46.080;11.116;2022-12-29T05:53:55;12.48;;;8.13;;
68987;SDS011;56038;46.080;11.116;2022-12-29T05:58:57;10.98;;;7.78;;
68987;SDS011;56038;46.080;11.116;2022-12-29T06:04:00;12.95;;;8.05;;
68987;SDS011;56038;46.080;11.116;2022-12-29T06:09:02;10.10;;;7.18;;
68987;SDS011;56038;46.080;11.116;2022-12-29T06:14:04;13.05;;;7.60;;
68987;SDS011;56038;46.080;11.116;2022-12-29T06:19:07;12.10;;;7.72;;
68987;SDS011;56038;46.080;11.116;2022-12-29T06:24:09;12.18;;;7.03;;
68987;SDS011;56038;46.080;11.116;2022-12-29T06:29:11;11.82;;;8.05;;
68987;SDS011;56038;46.080;11.116;2022-12-29T06:34:18;11.23;;;8.35;;
68987;SDS011;56038;46.080;11.116;2022-12-29T06:39:20;13.30;;;9.02;;
68987;SDS011;56038;46.080;11.116;2022-12-29T06:44:22;16.90;;;8.50;;
68987;SDS011;56038;46.080;11.116;2022-12-29T06:49:25;14.43;;;10.23;;
68987;SDS011;56038;46.080;11.116;2022-12-29T06:54:27;14.10;;;9.27;;
68987;SDS011;56038;46.080;11.116;2022-12-29T06:59:29;12.25;;;8.40;;
68987;SDS011;56038;46.080;11.116;2022-12-29T07:04:32;13.68;;;9.07;;
68987;SDS011;56038;46.080;11.116;2022-12-29T07:09:34;12.30;;;8.00;;
68987;SDS011;56038;46.080;11.116;2022-12-29T07:14:35;13.60;;;8.18;;
68987;SDS011;56038;46.080;11.116;2022-12-29T07:19:39;16.60;;;9.43;;
68987;SDS011;56038;46.080;11.116;2022-12-29T07:24:40;13.25;;;8.20;;
68987;SDS011;56038;46.080;11.116;2022-12-29T07:29:43;13.45;;;9.00;;
68987;SDS011;56038;46.080;11.116;2022-12-29T07:34:46;11.05;;;8.73;;
68987;SDS011;56038;46.080;11.116;2022-12-29T07:39:48;13.35;;;8.25;;
68987;SDS011;56038;46.080;11.116;2022-12-29T07:44:52;14.88;;;9.40;;
68987;SDS011;56038;46.080;11.116;2022-12-29T07:49:55;11.55;;;8.60;;
68987;SDS011;56038;46.080;11.116;2022-12-29T07:54:57;21.73;;;11.65;;
68987;SDS011;56038;46.080;11.116;2022-12-29T07:59:59;17.23;;;9.50;;
68987;SDS011;56038;46.080;11.116;2022-12-29T08:05:02;15.43;;;9.30;;
68987;SDS011;56038;46.080;11.116;2022-12-29T08:10:04;14.27;;;8.65;;
68987;SDS011;56038;46.080;11.116;2022-12-29T08:15:07;13.68;;;8.68;;
68987;SDS011;56038;46.080;11.116;2022-12-29T08:20:12;13.50;;;8.85;;
68987;SDS011;56038;46.080;11.116;2022-12-29T08:25:14;12.60;;;8.07;;
68987;SDS011;56038;46.080;11.116;2022-12-29T08:30:16;13.13;;;8.05;;
68987;SDS011;56038;46.080;11.116;2022-12-29T08:35:19;13.35;;;8.98;;
68987;SDS011;56038;46.080;11.116;2022-12-29T08:40:21;12.82;;;9.20;;
68987;SDS011;56038;46.080;11.116;2022-12-29T08:45:22;11.75;;;8.90;;
68987;SDS011;56038;46.080;11.116;2022-12-29T08:50:26;11.80;;;7.93;;
68987;SDS011;56038;46.080;11.116;2022-12-29T08:55:27;14.85;;;7.88;;
68987;SDS011;56038;46.080;11.116;2022-12-29T09:00:29;12.63;;;7.63;;
68987;SDS011;56038;46.080;11.116;2022-12-29T09:05:33;11.30;;;7.20;;
68987;SDS011;56038;46.080;11.116;2022-12-29T09:10:35;13.23;;;7.88;;
68987;SDS011;56038;46.080;11.116;2022-12-29T09:15:37;12.63;;;7.72;;
68987;SDS011;56038;46.080;11.116;2022-12-29T09:20:40;10.93;;;7.95;;
68987;SDS011;56038;46.080;11.116;2022-12-29T09:25:42;24.70;;;13.60;;
68987;SDS011;56038;46.080;11.116;2022-12-29T09:30:44;13.48;;;8.52;;
68987;SDS011;56038;46.080;11.116;2022-12-29T09:35:51;10.90;;;7.82;;
68987;SDS011;56038;46.080;11.116;2022-12-29T09:40:55;10.70;;;6.40;;
68987;SDS011;56038;46.080;11.116;2022-12-29T09:46:03;11.35;;;6.95;;
68987;SDS011;56038;46.080;11.116;2022-12-29T09:51:18;12.85;;;7.90;;
68987;SDS011;56038;46.080;11.116;2022-12-29T09:56:25;9.63;;;6.80;;
68987;SDS011;56038;46.080;11.116;2022-12-29T10:01:30;11.65;;;7.13;;
68987;SDS011;56038;46.080;11.116;2022-12-29T10:06:39;10.60;;;6.30;;
68987;SDS011;56038;46.080;11.116;2022-12-29T10:11:52;10.38;;;6.50;;
68987;SDS011;56038;46.080;11.116;2022-12-29T10:17:06;8.25;;;6.78;;
68987;SDS011;56038;46.080;11.116;2022-12-29T10:22:23;11.82;;;7.72;;
68987;SDS011;56038;46.080;11.116;2022-12-29T10:27:34;7.40;;;6.30;;
68987;SDS011;56038;46.080;11.116;2022-12-29T10:32:38;9.65;;;6.85;;
68987;SDS011;56038;46.080;11.116;2022-12-29T10:37:45;10.98;;;5.90;;
68987;SDS011;56038;46.080;11.116;2022-12-29T10:42:50;7.40;;;5.50;;
68987;SDS011;56038;46.080;11.116;2022-12-29T10:47:55;7.30;;;5.38;;
68987;SDS011;56038;46.080;11.116;2022-12-29T10:53:04;6.22;;;5.63;;
68987;SDS011;56038;46.080;11.116;2022-12-29T10:58:06;9.63;;;6.10;;
68987;SDS011;56038;46.080;11.116;2022-12-29T11:03:21;7.50;;;5.82;;
68987;SDS011;56038;46.080;11.116;2022-12-29T11:08:50;7.38;;;6.15;;
68987;SDS011;56038;46.080;11.116;2022-12-29T11:13:57;7.18;;;5.32;;
68987;SDS011;56038;46.080;11.116;2022-12-29T11:19:03;6.80;;;5.63;;
68987;SDS011;56038;46.080;11.116;2022-12-29T11:24:18;5.70;;;5.00;;
68987;SDS011;56038;46.080;11.116;2022-12-29T11:29:25;6.88;;;5.80;;
68987;SDS011;56038;46.080;11.116;2022-12-29T11:34:30;7.05;;;5.68;;
68987;SDS011;56038;46.080;11.116;2022-12-29T11:39:36;7.07;;;5.50;;
68987;SDS011;56038;46.080;11.116;2022-12-29T11:44:43;6.15;;;5.60;;
68987;SDS011;56038;46.080;11.116;2022-12-29T11:49:49;7.03;;;5.28;;
68987;SDS011;56038;46.080;11.116;2022-12-29T11:54:56;7.05;;;5.63;;
68987;SDS011;56038;46.080;11.116;2022-12-29T12:00:00;7.63;;;5.13;;
68987;SDS011;56038;46.080;11.116;2022-12-29T12:05:07;6.82;;;5.63;;
68987;SDS011;56038;46.080;11.116;2022-12-29T12:10:20;8.52;;;5.50;;
68987;SDS011;56038;46.080;11.116;2022-12-29T12:15:26;6.90;;;5.45;;
68987;SDS011;56038;46.080;11.116;2022-12-29T12:20:36;7.75;;;5.00;;
68987;SDS011;56038;46.080;11.116;2022-12-29T12:25:48;6.05;;;4.70;;
68987;SDS011;56038;46.080;11.116;2022-12-29T12:30:57;5.70;;;4.97;;
68987;SDS011;56038;46.080;11.116;2022-12-29T12:36:10;5.82;;;5.30;;
68987;SDS011;56038;46.080;11.116;2022-12-29T12:41:30;5.72;;;5.05;;
68987;SDS011;56038;46.080;11.116;2022-12-29T12:52:14;10.43;;;7.00;;
68987;SDS011;56038;46.080;11.116;2022-12-29T12:57:27;7.95;;;6.18;;
68987;SDS011;56038;46.080;11.116;2022-12-29T13:02:45;8.50;;;5.43;;
68987;SDS011;56038;46.080;11.116;2022-12-29T13:07:59;9.60;;;5.38;;
68987;SDS011;56038;46.080;11.116;2022-12-29T13:13:27;12.82;;;6.07;;
68987;SDS011;56038;46.080;11.116;2022-12-29T13:18:41;10.82;;;7.55;;
68987;SDS011;56038;46.080;11.116;2022-12-29T13:23:51;9.07;;;6.43;;
68987;SDS011;56038;46.080;11.116;2022-12-29T13:29:05;7.47;;;5.55;;
68987;SDS011;56038;46.080;11.116;2022-12-29T13:34:20;8.55;;;6.03;;
68987;SDS011;56038;46.080;11.116;2022-12-29T13:39:31;7.63;;;5.88;;
68987;SDS011;56038;46.080;11.116;2022-12-29T13:44:40;8.35;;;6.38;;
68987;SDS011;56038;46.080;11.116;2022-12-29T13:49:48;10.20;;;5.80;;
68987;SDS011;56038;46.080;11.116;2022-12-29T13:54:54;7.93;;;6.53;;
68987;SDS011;56038;46.080;11.116;2022-12-29T14:00:04;8.25;;;6.30;;
68987;SDS011;56038;46.080;11.116;2022-12-29T14:05:29;6.90;;;6.20;;
68987;SDS011;56038;46.080;11.116;2022-12-29T14:10:34;8.35;;;6.43;;
68987;SDS011;56038;46.080;11.116;2022-12-29T14:15:39;12.63;;;7.00;;
68987;SDS011;56038;46.080;11.116;2022-12-29T14:20:49;8.03;;;6.67;;
68987;SDS011;56038;46.080;11.116;2022-12-29T14:25:58;9.60;;;6.80;;
68987;SDS011;56038;46.080;11.116;2022-12-29T14:36:42;10.80;;;6.35;;
68987;SDS011;56038;46.080;11.116;2022-12-29T14:41:58;8.90;;;6.78;;
68987;SDS011;56038;46.080;11.116;2022-12-29T14:47:04;11.73;;;6.82;;
68987;SDS011;56038;46.080;11.116;2022-12-29T14:52:12;12.85;;;6.65;;
68987;SDS011;56038;46.080;11.116;2022-12-29T14:57:19;9.93;;;6.22;;
68987;SDS011;56038;46.080;11.116;2022-12-29T15:02:38;11.07;;;6.07;;
68987;SDS011;56038;46.080;11.116;2022-12-29T15:07:42;7.47;;;5.80;;
68987;SDS011;56038;46.080;11.116;2022-12-29T15:12:45;7.80;;;6.65;;
68987;SDS011;56038;46.080;11.116;2022-12-29T15:17:54;15.45;;;8.43;;
68987;SDS011;56038;46.080;11.116;2022-12-29T15:22:56;8.43;;;6.85;;
68987;SDS011;56038;46.080;11.116;2022-12-29T15:28:02;12.18;;;6.97;;
68987;SDS011;56038;46.080;11.116;2022-12-29T15:33:10;11.82;;;7.20;;
68987;SDS011;56038;46.080;11.116;2022-12-29T15:38:22;17.23;;;7.50;;
68987;SDS011;56038;46.080;11.116;2022-12-29T15:48:55;15.02;;;7.07;;
68987;SDS011;56038;46.080;11.116;2022-12-29T15:53:57;11.93;;;7.70;;
68987;SDS011;56038;46.080;11.116;2022-12-29T15:59:00;11.85;;;6.97;;
68987;SDS011;56038;46.080;11.116;2022-12-29T16:04:04;9.25;;;6.25;;
68987;SDS011;56038;46.080;11.116;2022-12-29T16:09:14;8.43;;;6.20;;
68987;SDS011;56038;46.080;11.116;2022-12-29T16:14:18;8.63;;;6.45;;
68987;SDS011;56038;46.080;11.116;2022-12-29T16:19:24;9.10;;;6.43;;
68987;SDS011;56038;46.080;11.116;2022-12-29T16:24:30;10.07;;;6.88;;
68987;SDS011;56038;46.080;11.116;2022-12-29T16:29:33;10.98;;;6.72;;
68987;SDS011;56038;46.080;11.116;2022-12-29T16:34:42;10.00;;;7.13;;
68987;SDS011;56038;46.080;11.116;2022-12-29T16:39:45;11.77;;;7.32;;
68987;SDS011;56038;46.080;11.116;2022-12-29T16:44:47;14.13;;;8.30;;
68987;SDS011;56038;46.080;11.116;2022-12-29T16:49:51;13.52;;;7.72;;
68987;SDS011;56038;46.080;11.116;2022-12-29T16:54:54;14.25;;;8.50;;
68987;SDS011;56038;46.080;11.116;2022-12-29T16:59:58;13.27;;;7.85;;
68987;SDS011;56038;46.080;11.116;2022-12-29T17:05:04;10.23;;;7.88;;
68987;SDS011;56038;46.080;11.116;2022-12-29T17:10:06;12.73;;;7.55;;
68987;SDS011;56038;46.080;11.116;2022-12-29T17:15:10;10.52;;;6.82;;
68987;SDS011;56038;46.080;11.116;2022-12-29T17:20:18;12.23;;;7.70;;
68987;SDS011;56038;46.080;11.116;2022-12-29T17:25:22;28.03;;;12.43;;
68987;SDS011;56038;46.080;11.116;2022-12-29T17:30:28;23.15;;;10.35;;
68987;SDS011;56038;46.080;11.116;2022-12-29T17:35:34;21.50;;;10.00;;
68987;SDS011;56038;46.080;11.116;2022-12-29T17:40:36;20.02;;;11.82;;
68987;SDS011;56038;46.080;11.116;2022-12-29T17:45:38;21.88;;;11.10;;
68987;SDS011;56038;46.080;11.116;2022-12-29T17:50:43;17.60;;;11.00;;
68987;SDS011;56038;46.080;11.116;2022-12-29T17:55:47;18.60;;;12.10;;
68987;SDS011;56038;46.080;11.116;2022-12-29T18:00:49;23.40;;;10.88;;
68987;SDS011;56038;46.080;11.116;2022-12-29T18:05:55;19.33;;;10.02;;
68987;SDS011;56038;46.080;11.116;2022-12-29T18:10:57;18.17;;;10.02;;
68987;SDS011;56038;46.080;11.116;2022-12-29T18:15:59;20.50;;;12.10;;
68987;SDS011;56038;46.080;11.116;2022-12-29T18:21:02;17.33;;;10.63;;
68987;SDS011;56038;46.080;11.116;2022-12-29T18:26:05;22.23;;;11.43;;
68987;SDS011;56038;46.080;11.116;2022-12-29T18:31:15;16.65;;;10.43;;
68987;SDS011;56038;46.080;11.116;2022-12-29T18:36:21;20.88;;;12.80;;
68987;SDS011;56038;46.080;11.116;2022-12-29T18:41:24;21.35;;;12.55;;
68987;SDS011;56038;46.080;11.116;2022-12-29T18:46:28;20.17;;;11.48;;
68987;SDS011;56038;46.080;11.116;2022-12-29T18:51:31;17.90;;;11.02;;
68987;SDS011;56038;46.080;11.116;2022-12-29T18:56:34;20.10;;;11.48;;
68987;SDS011;56038;46.080;11.116;2022-12-29T19:01:35;26.92;;;13.20;;
68987;SDS011;56038;46.080;11.116;2022-12-29T19:06:39;24.45;;;10.95;;
68987;SDS011;56038;46.080;11.116;2022-12-29T19:11:41;21.52;;;12.02;;
68987;SDS011;56038;46.080;11.116;2022-12-29T19:16:43;20.00;;;11.57;;
68987;SDS011;56038;46.080;11.116;2022-12-29T19:21:46;15.57;;;11.10;;
68987;SDS011;56038;46.080;11.116;2022-12-29T19:26:48;19.02;;;13.10;;
68987;SDS011;56038;46.080;11.116;2022-12-29T19:31:50;68.57;;;31.58;;
68987;SDS011;56038;46.080;11.116;2022-12-29T19:36:53;21.77;;;13.43;;
68987;SDS011;56038;46.080;11.116;2022-12-29T19:41:55;19.83;;;12.77;;
68987;SDS011;56038;46.080;11.116;2022-12-29T19:46:57;26.25;;;13.40;;
68987;SDS011;56038;46.080;11.116;2022-12-29T19:52:00;20.35;;;12.25;;
68987;SDS011;56038;46.080;11.116;2022-12-29T19:57:02;22.80;;;13.73;;
68987;SDS011;56038;46.080;11.116;2022-12-29T20:02:04;25.35;;;14.90;;
68987;SDS011;56038;46.080;11.116;2022-12-29T20:07:08;23.30;;;14.63;;
68987;SDS011;56038;46.080;11.116;2022-12-29T20:12:10;24.60;;;14.38;;
68987;SDS011;56038;46.080;11.116;2022-12-29T20:17:13;24.02;;;14.85;;
68987;SDS011;56038;46.080;11.116;2022-12-29T20:22:17;22.77;;;14.68;;
68987;SDS011;56038;46.080;11.116;2022-12-29T20:27:19;21.70;;;14.63;;
68987;SDS011;56038;46.080;11.116;2022-12-29T20:32:21;18.05;;;13.18;;
68987;SDS011;56038;46.080;11.116;2022-12-29T20:37:25;19.83;;;12.93;;
68987;SDS011;56038;46.080;11.116;2022-12-29T20:42:27;21.42;;;12.13;;
68987;SDS011;56038;46.080;11.116;2022-12-29T20:47:29;21.98;;;11.50;;
68987;SDS011;56038;46.080;11.116;2022-12-29T20:52:33;19.20;;;12.43;;
68987;SDS011;56038;46.080;11.116;2022-12-29T20:57:35;19.58;;;11.48;;
68987;SDS011;56038;46.080;11.116;2022-12-29T21:02:36;17.13;;;11.50;;
68987;SDS011;56038;46.080;11.116;2022-12-29T21:07:40;20.02;;;11.82;;
68987;SDS011;56038;46.080;11.116;2022-12-29T21:12:41;20.88;;;12.00;;
68987;SDS011;56038;46.080;11.116;2022-12-29T21:17:43;25.65;;;12.55;;
68987;SDS011;56038;46.080;11.116;2022-12-29T21:22:51;17.15;;;11.20;;
68987;SDS011;56038;46.080;11.116;2022-12-29T21:27:53;22.67;;;12.43;;
68987;SDS011;56038;46.080;11.116;2022-12-29T21:32:54;23.02;;;11.98;;
68987;SDS011;56038;46.080;11.116;2022-12-29T21:37:58;19.40;;;12.60;;
68987;SDS011;56038;46.080;11.116;2022-12-29T21:43:00;22.13;;;14.32;;
68987;SDS011;56038;46.080;11.116;2022-12-29T21:48:02;22.05;;;13.35;;
68987;SDS011;56038;46.080;11.116;2022-12-29T21:53:24;16.30;;;12.70;;
68987;SDS011;56038;46.080;11.116;2022-12-29T21:58:37;24.70;;;12.00;;
68987;SDS011;56038;46.080;11.116;2022-12-29T22:03:57;20.52;;;11.98;;
68987;SDS011;56038;46.080;11.116;2022-12-29T22:09:17;18.10;;;11.55;;
68987;SDS011;56038;46.080;11.116;2022-12-29T22:14:36;21.45;;;12.10;;
68987;SDS011;56038;46.080;11.116;2022-12-29T22:19:38;18.63;;;11.50;;
68987;SDS011;56038;46.080;11.116;2022-12-29T22:24:41;16.65;;;11.38;;
68987;SDS011;56038;46.080;11.116;2022-12-29T22:29:42;16.38;;;11.43;;
68987;SDS011;56038;46.080;11.116;2022-12-29T22:34:45;19.42;;;11.65;;
68987;SDS011;56038;46.080;11.116;2022-12-29T22:39:48;16.13;;;10.95;;
68987;SDS011;56038;46.080;11.116;2022-12-29T22:44:50;16.17;;;11.27;;
68987;SDS011;56038;46.080;11.116;2022-12-29T22:49:52;14.50;;;10.63;;
68987;SDS011;56038;46.080;11.116;2022-12-29T22:54:55;18.33;;;10.93;;
68987;SDS011;56038;46.080;11.116;2022-12-29T22:59:57;18.17;;;12.57;;
68987;SDS011;56038;46.080;11.116;2022-12-29T23:04:59;19.25;;;11.88;;
68987;SDS011;56038;46.080;11.116;2022-12-29T23:10:03;17.85;;;11.05;;
68987;SDS011;56038;46.080;11.116;2022-12-29T23:15:05;18.27;;;11.90;;
68987;SDS011;56038;46.080;11.116;2022-12-29T23:20:08;21.48;;;11.98;;
68987;SDS011;56038;46.080;11.116;2022-12-29T23:25:11;17.20;;;11.25;;
68987;SDS011;56038;46.080;11.116;2022-12-29T23:30:13;19.48;;;11.63;;
68987;SDS011;56038;46.080;11.116;2022-12-29T23:35:15;18.67;;;12.00;;
68987;SDS011;56038;46.080;11.116;2022-12-29T23:40:18;22.67;;;12.20;;
68987;SDS011;56038;46.080;11.116;2022-12-29T23:45:20;18.95;;;11.02;;
68987;SDS011;56038;46.080;11.116;2022-12-29T23:50:22;20.92;;;11.45;;
68987;SDS011;56038;46.080;11.116;2022-12-29T23:55:25;15.52;;;11.05;;
